Casper, WY

3:50 PM MDT on April 26, 2015 (GMT -0600)
Casper Mountain Foothills | | Change Station
CLOSE
Current Station
Personal Weather Station
Location: Casper, WY
Elevation: 5334 ft
Nearby Weather Stations

Elev 5334 ft 42.83 °N, 106.31 °W | Updated 18 seconds ago

Overcast
Overcast
37.6 °F
Feels Like 38 °F
N
3.0
Wind Variable Wind from NNW
Gusts 3.0 mph

Today
High -- | Low -- °F
--% Chance of Precip.
Yesterday
High -- | Low -- °F
Precip. -- in
6:06 AM 8:00 PM
First Quarter, 59% visible
Pressure 29.98 in
Visibility 5.0 miles
Clouds Overcast 800 ft
Windchill 38 °F
Dew Point 35 °F
Humidity 89%
Rainfall 0.29 in
Snow Depth Not available.
UV 3 out of 12
Pollen .40 out of 12
Air Quality Not available.
Flu Activity Local Activity
SPECI KCPR 262104Z 01016KT 5SM -RA BR OVC008 03/02 A2998 RMK AO2 UPE2055RAB2055 P0000 T00280017

More Conditions Fewer Conditions

Pressure 29.98 in
Visibility 5.0 miles
Clouds Overcast 800 ft
Windchill 38 °F
Dew Point 35 °F
Humidity 89%
Rainfall 0.29 in
Snow Depth Not available.
UV 3 out of 12
Pollen .40 out of 12
Air Quality Not available.
Flu Activity Local Activity
SPECI KCPR 262104Z 01016KT 5SM -RA BR OVC008 03/02 A2998 RMK AO2 UPE2055RAB2055 P0000 T00280017

More Conditions Fewer Conditions

The full scope of the disaster following a powerful 7.8-magnitude earthquake in Nepal may not come into view for days, but global charities are already sending emergency aid. Click to see how you can help.

10-Day Weather Forecast

Almanac

Astronomy

Apr. 26, 2015 Rise Set
Actual Time
Civil Twilight
Nautical Twilight
Astronomical Twilight
Moon
Length of Visible Light
Length of Day
Tomorrow will be .
, % of the Moon is Illuminated

Today's Extremes

State Highs State Lows

Community

WunderPhotos

Upload Photos

1,817,132 photos uploaded!

WunderBlogs® & News

Nearby

Air Quality

  Air Quality AQ Index Pollutant
Not available.

Snow Depth

Station Depth Elevation

Earthquake Activity

City Distance Mag. Time & Date
Minimum magnitude displayed is 2.5.

Coastal Water Temperatures

Place Temperature

Stations

Nearby Weather Stations

Station Location Temp. Windchill Dew Point Humidity Wind Precip. Elev Updated Type